Glastonbury, Connecticut
Current Conditions -  °F | °C
As of 12:53 PM on Saturday 25 Oct 2014 (Local Time) from KHFD Reporting Station
Clear Clear  
Wind Chill: 64°   Ceiling: Unl
Heat Index: 64°   Visibility: 10mi
Dew Point: 43°   Wind: 7mph
Humidity: 46%   Direction: NA
Pressure: 29.72"   Gusts: 21mph
Location:  41.71°N, 72.61°W
Report Text: KHFD 251653Z VRB06G18KT 10SM CLR 18/06 A2972 RMK AO2 SLP065 T01780061
Loading
Personal Weather Stations






























Interactive Weather Map New forecast layout! Learn more

10-Day Weather Forecast

Advertisements
Track Severe Weather on mobile